Maran Pythia — SVAQ5 — position and weather

sailwx.info

Track history (hours):
 
Tides and Currents Weather Stations Pressure Air Temp Water Temp Dewpoint Dewpoint Depression Visibility Wind Speed Wind Dir Waves Ship Positions

Maran Pythia

Last reported at 2016-Apr-18 13:21 UTC. Time now 2016-Apr-29 08:15 UTC.
Position N 02°02' E 102°10'.
Warning: this ship's position is 10 days out of date.

Length 275 m; draft 9.7 m.

Type: Ship. MMSI: 240893000.

Date/timePositionNaut miles runAvg speedWind from/ knotsBaromVisibWave heightAir tempDewpointWater temp
2016-Apr-18 13:21N 02°02' E 102°10'910.7
2016-Apr-18 12:31N 01°56' E 102°18'1010.4
2016-Apr-18 11:34N 01°52' E 102°27'1110.4
2016-Apr-18 10:32N 01°48' E 102°36'1110.7
2016-Apr-18 09:33N 01°44' E 102°46'5511.0
2016-Apr-18 04:33N 01°13' E 103°31'1010.4
2016-Apr-18 03:34N 01°10' E 103°41'7 7.0
2016-Apr-18 02:34N 01°11' E 103°48'8 8.3
2016-Apr-18 01:33N 01°14' E 103°56'1 0.5
2016-Apr-18 00:28N 01°15' E 103°56'0 0.0
2016-Apr-17 23:25N 01°15' E 103°56'0 0.0
2016-Apr-17 22:31N 01°15' E 103°56'0 0.0
2016-Apr-17 21:34N 01°15' E 103°56'0 0.0
2016-Apr-17 20:34N 01°15' E 103°56'0 0.0
2016-Apr-17 19:33N 01°15' E 103°56'0 0.0
2016-Apr-17 18:34N 01°15' E 103°56'0 0.0
2016-Apr-17 17:33N 01°15' E 103°56'0 0.0
2016-Apr-17 16:34N 01°15' E 103°56'0 0.0
2016-Apr-17 15:31N 01°15' E 103°56'0 0.0
2016-Apr-17 14:30N 01°15' E 103°56'0 0.0
2016-Apr-17 13:31N 01°15' E 103°56'0 0.1
2016-Apr-17 12:30N 01°15' E 103°56'0 0.1
2016-Apr-17 11:31N 01°15' E 103°56'0 0.0
2016-Apr-17 10:34N 01°15' E 103°56'0 0.0
2016-Apr-17 09:33N 01°15' E 103°56'0 0.1
2016-Apr-17 08:25N 01°15' E 103°56'0 0.1
2016-Apr-17 07:33N 01°15' E 103°56'0 0.1
2016-Apr-17 06:31N 01°15' E 103°56'0 0.1
2016-Apr-17 05:30N 01°15' E 103°56'0 0.0
2016-Apr-17 04:30N 01°15' E 103°56'0 0.2
2016-Apr-17 03:33N 01°15' E 103°56'4 4.3
2016-Apr-17 02:33N 01°16' E 104°00'6 6.0
2016-Apr-17 01:33N 01°17' E 104°06'  
2016-Apr-10 10:29N 29°06' E 122°35'2712.9
2016-Apr-10 08:22N 29°33' E 122°34'910.6
2016-Apr-10 07:32N 29°41' E 122°28'1212.3
2016-Apr-10 06:33N 29°47' E 122°16'1311.7
2016-Apr-10 05:28N 29°55' E 122°05'6 6.9
2016-Apr-10 04:33N 29°57' E 121°58'0 0.0
2016-Apr-10 03:25N 29°57' E 121°58'0 0.0
2016-Apr-10 01:25N 29°57' E 121°58'0 0.0
2016-Apr-09 20:31N 29°57' E 121°58'0 0.0
2016-Apr-09 19:25N 29°57' E 121°58'0 0.0
2016-Apr-09 17:31N 29°57' E 121°58'0 0.0
2016-Apr-09 15:31N 29°57' E 121°58'0 0.0
2016-Apr-09 14:25N 29°57' E 121°58'0 0.0
2016-Apr-09 13:19N 29°57' E 121°58'0 0.0
2016-Apr-09 12:32N 29°57' E 121°58'0 0.0
2016-Apr-09 11:26N 29°57' E 121°58'0 0.0
2016-Apr-09 10:25N 29°57' E 121°58'0 0.0
2016-Apr-09 09:26N 29°57' E 121°58'0 0.0
2016-Apr-09 04:32N 29°57' E 121°58'0 0.0
2016-Apr-09 03:31N 29°57' E 121°58'0 0.0
2016-Apr-08 22:09N 29°57' E 121°58'0 0.0
2016-Apr-08 20:21N 29°57' E 121°58'0 0.0
2016-Apr-08 19:21N 29°57' E 121°58'0 0.0
2016-Apr-08 16:33N 29°57' E 121°58'0 0.0
2016-Apr-08 14:27N 29°57' E 121°58'  
Track history (hours):
 
Tides and Currents Weather Stations Pressure Air Temp Water Temp Dewpoint Dewpoint Depression Visibility Wind Speed Wind Dir Waves Ship Positions

Maran Pythia

Last reported at 2016-Apr-18 13:21 UTC. Time now 2016-Apr-29 08:15 UTC.
Position N 02°02' E 102°10'.
Warning: this ship's position is 10 days out of date.

Length 275 m; draft 9.7 m.

Type: Ship. MMSI: 240893000.

Date/timePositionNaut miles runAvg speedWind from/ knotsBaromVisibWave heightAir tempDewpointWater temp
2016-Apr-18 13:21N 02°02' E 102°10'910.7
2016-Apr-18 12:31N 01°56' E 102°18'1010.4
2016-Apr-18 11:34N 01°52' E 102°27'1110.4
2016-Apr-18 10:32N 01°48' E 102°36'1110.7
2016-Apr-18 09:33N 01°44' E 102°46'5511.0
2016-Apr-18 04:33N 01°13' E 103°31'1010.4
2016-Apr-18 03:34N 01°10' E 103°41'7 7.0
2016-Apr-18 02:34N 01°11' E 103°48'8 8.3
2016-Apr-18 01:33N 01°14' E 103°56'1 0.5
2016-Apr-18 00:28N 01°15' E 103°56'0 0.0
2016-Apr-17 23:25N 01°15' E 103°56'0 0.0
2016-Apr-17 22:31N 01°15' E 103°56'0 0.0
2016-Apr-17 21:34N 01°15' E 103°56'0 0.0
2016-Apr-17 20:34N 01°15' E 103°56'0 0.0
2016-Apr-17 19:33N 01°15' E 103°56'0 0.0
2016-Apr-17 18:34N 01°15' E 103°56'0 0.0
2016-Apr-17 17:33N 01°15' E 103°56'0 0.0
2016-Apr-17 16:34N 01°15' E 103°56'0 0.0
2016-Apr-17 15:31N 01°15' E 103°56'0 0.0
2016-Apr-17 14:30N 01°15' E 103°56'0 0.0
2016-Apr-17 13:31N 01°15' E 103°56'0 0.1
2016-Apr-17 12:30N 01°15' E 103°56'0 0.1
2016-Apr-17 11:31N 01°15' E 103°56'0 0.0
2016-Apr-17 10:34N 01°15' E 103°56'0 0.0
2016-Apr-17 09:33N 01°15' E 103°56'0 0.1
2016-Apr-17 08:25N 01°15' E 103°56'0 0.1
2016-Apr-17 07:33N 01°15' E 103°56'0 0.1
2016-Apr-17 06:31N 01°15' E 103°56'0 0.1
2016-Apr-17 05:30N 01°15' E 103°56'0 0.0
2016-Apr-17 04:30N 01°15' E 103°56'0 0.2
2016-Apr-17 03:33N 01°15' E 103°56'4 4.3
2016-Apr-17 02:33N 01°16' E 104°00'6 6.0
2016-Apr-17 01:33N 01°17' E 104°06'  
2016-Apr-10 10:29N 29°06' E 122°35'2712.9
2016-Apr-10 08:22N 29°33' E 122°34'910.6
2016-Apr-10 07:32N 29°41' E 122°28'1212.3
2016-Apr-10 06:33N 29°47' E 122°16'1311.7
2016-Apr-10 05:28N 29°55' E 122°05'6 6.9
2016-Apr-10 04:33N 29°57' E 121°58'0 0.0
2016-Apr-10 03:25N 29°57' E 121°58'0 0.0
2016-Apr-10 01:25N 29°57' E 121°58'0 0.0
2016-Apr-09 20:31N 29°57' E 121°58'0 0.0
2016-Apr-09 19:25N 29°57' E 121°58'0 0.0
2016-Apr-09 17:31N 29°57' E 121°58'0 0.0
2016-Apr-09 15:31N 29°57' E 121°58'0 0.0
2016-Apr-09 14:25N 29°57' E 121°58'0 0.0
2016-Apr-09 13:19N 29°57' E 121°58'0 0.0
2016-Apr-09 12:32N 29°57' E 121°58'0 0.0
2016-Apr-09 11:26N 29°57' E 121°58'0 0.0
2016-Apr-09 10:25N 29°57' E 121°58'0 0.0
2016-Apr-09 09:26N 29°57' E 121°58'0 0.0
2016-Apr-09 04:32N 29°57' E 121°58'0 0.0
2016-Apr-09 03:31N 29°57' E 121°58'0 0.0
2016-Apr-08 22:09N 29°57' E 121°58'0 0.0
2016-Apr-08 20:21N 29°57' E 121°58'0 0.0
2016-Apr-08 19:21N 29°57' E 121°58'0 0.0
2016-Apr-08 16:33N 29°57' E 121°58'0 0.0
2016-Apr-08 14:27N 29°57' E 121°58'  

Dump ship's entire track history